createdAt,value
2022-12-04T00:02:27.292Z,99023.22
2022-12-04T00:05:12.477Z,99031.19
2022-12-04T00:07:57.836Z,99030.47
2022-12-04T00:10:44.110Z,99030.53
2022-12-04T00:13:29.338Z,99032.97
2022-12-04T00:16:17.416Z,99037.00
2022-12-04T00:19:02.908Z,99027.53
2022-12-04T00:21:49.776Z,99033.16
2022-12-04T00:24:35.359Z,99024.06
2022-12-04T00:27:20.543Z,99031.63
2022-12-04T00:30:06.528Z,99018.59
2022-12-04T00:32:51.936Z,99026.56
2022-12-04T00:35:37.300Z,99013.50
2022-12-04T00:38:22.478Z,99015.97
2022-12-04T00:41:12.726Z,99020.34
2022-12-04T00:43:59.049Z,99023.56
2022-12-04T00:46:44.154Z,99025.19
2022-12-04T00:49:29.464Z,99027.97
2022-12-04T00:52:14.689Z,99020.84
2022-12-04T00:54:59.992Z,99023.66
2022-12-04T00:57:45.415Z,99018.56
2022-12-04T01:00:30.784Z,99023.31
2022-12-04T01:03:16.162Z,99014.63
2022-12-04T01:06:01.836Z,99018.59
2022-12-04T01:08:48.137Z,99015.47
2022-12-04T01:11:34.435Z,99023.00
2022-12-04T01:14:19.782Z,99010.00
2022-12-04T01:17:05.046Z,99010.00
2022-12-04T01:19:50.366Z,99018.72
2022-12-04T01:22:35.715Z,99011.63
2022-12-04T01:25:21.141Z,99012.03
2022-12-04T01:28:06.334Z,99006.91
2022-12-04T01:31:09.118Z,99006.91
2022-12-04T01:33:54.745Z,98999.00
2022-12-04T01:36:40.051Z,98993.88
2022-12-04T01:39:25.359Z,98993.53
2022-12-04T01:42:15.629Z,98985.19
2022-12-04T01:45:36.651Z,98980.84
2022-12-04T01:48:30.940Z,98981.28
2022-12-04T01:51:27.353Z,98976.16
2022-12-04T01:54:22.883Z,98972.59
2022-12-04T01:57:14.229Z,98968.25
2022-12-04T02:00:05.394Z,98969.88
2022-12-04T02:02:51.328Z,98958.78
2022-12-04T02:05:36.830Z,98958.41
2022-12-04T02:08:22.369Z,98957.22
2022-12-04T02:11:42.152Z,98956.09
2022-12-04T02:14:56.418Z,98953.31
2022-12-04T02:17:59.995Z,98954.91
2022-12-04T02:21:08.155Z,98947.41
2022-12-04T02:24:02.239Z,98942.28
2022-12-04T02:27:04.226Z,98950.59
2022-12-04T02:29:59.495Z,98951.00
2022-12-04T02:32:58.714Z,98948.69
2022-12-04T02:36:03.374Z,98945.09
2022-12-04T02:39:07.850Z,98953.84
2022-12-04T02:42:03.596Z,98951.09
2022-12-04T02:45:03.689Z,98951.09
2022-12-04T02:47:49.371Z,98950.31
2022-12-04T02:50:40.438Z,98955.03
2022-12-04T02:53:32.667Z,98955.03
2022-12-04T02:56:26.605Z,98947.16
2022-12-04T02:59:20.524Z,98946.34
2022-12-04T03:02:10.774Z,98944.81
2022-12-04T03:04:59.917Z,98932.94
2022-12-04T03:07:52.436Z,98932.94
2022-12-04T03:10:44.217Z,98930.59
2022-12-04T03:13:34.196Z,98925.03
2022-12-04T03:16:28.199Z,98932.56
2022-12-04T03:19:21.279Z,98935.34
2022-12-04T03:22:10.599Z,98928.22
2022-12-04T03:24:57.416Z,98927.44
2022-12-04T03:27:53.629Z,98937.75
2022-12-04T03:30:50.021Z,98946.84
2022-12-04T03:33:42.649Z,98940.94
2022-12-04T03:36:34.801Z,98946.06
2022-12-04T03:39:42.704Z,98953.63
2022-12-04T03:42:53.309Z,98944.94
2022-12-04T03:45:52.607Z,98939.38
2022-12-04T03:49:29.789Z,98937.81
2022-12-04T03:52:24.612Z,98940.56
2022-12-04T03:55:43.515Z,98929.94
2022-12-04T03:58:32.088Z,98935.47
2022-12-04T04:01:23.160Z,98942.19
2022-12-04T04:04:13.881Z,98947.75
2022-12-04T04:07:12.180Z,98949.75
2022-12-04T04:10:03.647Z,98956.84
2022-12-04T04:13:14.728Z,98946.97
2022-12-04T04:16:21.639Z,98950.94
2022-12-04T04:19:27.884Z,98948.16
2022-12-04T04:22:32.845Z,98950.16
2022-12-04T04:25:24.332Z,98953.69
2022-12-04T04:28:35.646Z,98952.16
2022-12-04T04:31:50.343Z,98961.69
2022-12-04T04:35:20.912Z,98950.59
2022-12-04T04:38:06.435Z,98943.47
2022-12-04T04:41:00.540Z,98948.22
2022-12-04T04:44:08.378Z,98949.00
2022-12-04T04:46:59.796Z,98942.28
2022-12-04T04:49:47.511Z,98935.56
2022-12-04T04:52:34.855Z,98944.69
2022-12-04T04:55:21.018Z,98937.16
2022-12-04T04:58:13.042Z,98936.38
2022-12-04T05:01:04.983Z,98934.00
2022-12-04T05:03:50.288Z,98939.13
2022-12-04T05:06:35.464Z,98941.09
2022-12-04T05:09:20.892Z,98929.25
2022-12-04T05:12:06.418Z,98934.78
2022-12-04T05:14:52.009Z,98932.78
2022-12-04T05:17:37.552Z,98935.56
2022-12-04T05:20:22.901Z,98937.56
2022-12-04T05:23:08.344Z,98941.47
2022-12-04T05:26:00.238Z,98939.91
2022-12-04T05:28:45.705Z,98941.91
2022-12-04T05:31:30.997Z,98932.00
2022-12-04T05:34:16.109Z,98931.25
2022-12-04T05:37:01.428Z,98925.28
2022-12-04T05:39:47.123Z,98932.38
2022-12-04T05:42:32.591Z,98932.38
2022-12-04T05:45:18.122Z,98926.84
2022-12-04T05:48:03.584Z,98922.88
2022-12-04T05:50:48.927Z,98919.66
2022-12-04T05:53:34.520Z,98919.66
2022-12-04T05:56:20.296Z,98922.44
2022-12-04T05:59:05.848Z,98924.78
2022-12-04T06:01:51.139Z,98906.16
2022-12-04T06:04:37.478Z,98913.28
2022-12-04T06:07:22.868Z,98904.16
2022-12-04T06:10:08.294Z,98904.53
2022-12-04T06:12:57.725Z,98910.09
2022-12-04T06:15:43.257Z,98915.63
2022-12-04T06:18:28.458Z,98913.63
2022-12-04T06:21:13.705Z,98915.63
2022-12-04T06:23:59.096Z,98916.41
2022-12-04T06:27:10.933Z,98917.63
2022-12-04T06:29:50.294Z,98925.53
2022-12-04T06:32:35.587Z,98925.16
2022-12-04T06:35:20.853Z,98930.22
2022-12-04T06:38:08.138Z,98930.59
2022-12-04T06:40:53.639Z,98928.94
2022-12-04T06:43:39.667Z,98932.03
2022-12-04T06:46:28.460Z,98940.72
2022-12-04T06:49:13.974Z,98929.97
2022-12-04T06:51:59.469Z,98935.16
2022-12-04T06:54:44.576Z,98937.94
2022-12-04T06:57:29.780Z,98945.41
2022-12-04T07:00:15.814Z,98942.22
2022-12-04T07:03:01.005Z,98940.59
2022-12-04T07:05:46.587Z,98942.09
2022-12-04T07:08:32.177Z,98930.22
2022-12-04T07:11:18.784Z,98941.59
2022-12-04T07:14:04.804Z,98937.97
2022-12-04T07:16:50.292Z,98939.50
2022-12-04T07:19:35.522Z,98939.78
2022-12-04T07:22:20.757Z,98938.50
2022-12-04T07:25:06.194Z,98925.72
2022-12-04T07:27:51.518Z,98939.09
2022-12-04T07:30:38.401Z,98933.47
2022-12-04T07:33:23.766Z,98934.97
2022-12-04T07:36:13.411Z,98935.69
2022-12-04T07:38:59.053Z,98935.25
2022-12-04T07:41:44.172Z,98940.78
2022-12-04T07:44:32.685Z,98937.94
2022-12-04T07:47:17.864Z,98938.72
2022-12-04T07:50:04.570Z,98942.63
2022-12-04T07:52:50.262Z,98939.75
2022-12-04T07:55:35.630Z,98936.16
2022-12-04T07:58:21.148Z,98935.28
2022-12-04T08:01:12.524Z,98941.97
2022-12-04T08:03:59.490Z,98928.88
2022-12-04T08:06:45.825Z,98931.66
2022-12-04T08:09:31.417Z,98932.03
2022-12-04T08:12:16.876Z,98931.56
2022-12-04T08:15:02.233Z,98945.56
2022-12-04T08:17:47.664Z,98940.41
2022-12-04T08:20:32.976Z,98935.59
2022-12-04T08:23:18.317Z,98940.34
2022-12-04T08:26:05.380Z,98943.19
2022-12-04T08:28:53.618Z,98946.03
2022-12-04T08:31:39.338Z,98943.34
2022-12-04T08:34:25.068Z,98941.75
2022-12-04T08:37:10.587Z,98935.50
2022-12-04T08:39:56.372Z,98938.34
2022-12-04T08:42:41.936Z,98933.63
2022-12-04T08:45:27.273Z,98927.31
2022-12-04T08:48:12.331Z,98940.81
2022-12-04T08:50:58.163Z,98931.69
2022-12-04T08:53:43.750Z,98929.78
2022-12-04T08:56:30.056Z,98930.97
2022-12-04T08:59:15.694Z,98929.44
2022-12-04T09:02:01.075Z,98927.78
2022-12-04T09:04:46.291Z,98922.19
2022-12-04T09:07:31.381Z,98927.66
2022-12-04T09:10:16.728Z,98931.53
2022-12-04T09:13:02.088Z,98925.88
2022-12-04T09:15:47.494Z,98926.59
2022-12-04T09:18:33.621Z,98925.81
2022-12-04T09:21:21.309Z,98923.81
2022-12-04T09:24:06.760Z,98925.75
2022-12-04T09:26:52.169Z,98926.53
2022-12-04T09:29:37.717Z,98931.31
2022-12-04T09:32:23.752Z,98935.22
2022-12-04T09:35:09.344Z,98939.56
2022-12-04T09:37:54.701Z,98940.69
2022-12-04T09:41:25.092Z,98940.78
2022-12-04T09:44:20.049Z,98938.00
2022-12-04T09:53:05.392Z,98929.31
2022-12-04T09:56:04.181Z,98932.16
2022-12-04T09:59:10.535Z,98926.69
2022-12-04T10:02:00.031Z,98914.44
2022-12-04T10:04:44.712Z,98915.78
2022-12-04T10:07:44.501Z,98907.03
2022-12-04T10:10:29.599Z,98909.22
2022-12-04T11:22:57.267Z,98884.00
2022-12-04T11:25:50.363Z,98885.22
2022-12-04T11:28:42.424Z,98888.00
2022-12-04T11:31:29.781Z,98886.00
2022-12-04T11:34:22.504Z,98883.22
2022-12-04T11:37:20.947Z,98889.53
2022-12-04T11:40:17.129Z,98895.44
2022-12-04T11:43:12.397Z,98889.81
2022-12-04T11:46:00.916Z,98889.38
2022-12-04T11:48:46.419Z,98891.72
2022-12-04T11:51:47.156Z,98886.97
2022-12-04T11:54:41.645Z,98875.84
2022-12-04T11:57:47.685Z,98873.88
2022-12-04T12:00:40.755Z,98876.66
2022-12-04T12:03:49.057Z,98880.63
2022-12-04T12:06:49.969Z,98869.50
2022-12-04T12:10:10.332Z,98858.41
2022-12-04T12:13:20.660Z,98864.72
2022-12-04T12:16:21.012Z,98853.63
2022-12-04T12:19:28.486Z,98846.88
2022-12-04T12:22:28.590Z,98844.88
2022-12-04T12:25:22.382Z,98850.06
2022-12-04T12:28:35.442Z,98840.44
2022-12-04T12:31:55.740Z,98833.22
2022-12-04T12:34:43.207Z,98834.34
2022-12-04T12:38:03.229Z,98827.19
2022-12-04T12:46:22.034Z,98831.94
2022-12-04T12:49:31.566Z,98827.25
2022-12-04T12:52:29.851Z,98819.34
2022-12-04T12:55:24.326Z,98813.00
2022-12-04T12:58:08.712Z,98813.34
2022-12-04T13:01:29.821Z,98800.34
2022-12-04T13:04:34.620Z,98811.78
2022-12-04T13:07:27.782Z,98818.03
2022-12-04T13:10:15.718Z,98809.69
2022-12-04T13:13:06.887Z,98810.50
2022-12-04T13:16:23.173Z,98798.59
2022-12-04T13:19:29.940Z,98790.59
2022-12-04T13:22:46.235Z,98794.06
2022-12-04T13:25:47.075Z,98792.00
2022-12-04T13:29:00.197Z,98786.78
2022-12-04T13:32:22.534Z,98792.34
2022-12-04T13:35:50.036Z,98801.03
2022-12-04T13:38:38.320Z,98797.44
2022-12-04T13:41:26.046Z,98807.78
2022-12-04T13:44:14.688Z,98800.69
2022-12-04T13:47:03.406Z,98790.25
2022-12-04T13:49:49.209Z,98790.25
2022-12-04T13:52:41.363Z,98797.38
2022-12-04T13:55:39.360Z,98797.38
2022-12-04T13:58:30.605Z,98796.16
2022-12-04T14:01:28.823Z,98808.91
2022-12-04T14:04:29.566Z,98803.88
2022-12-04T14:07:25.711Z,98802.75
2022-12-04T14:10:14.424Z,98805.97
2022-12-04T14:13:05.903Z,98806.78
2022-12-04T14:16:04.563Z,98801.66
2022-12-04T14:18:54.050Z,98806.50
2022-12-04T14:21:45.603Z,98807.03
2022-12-04T14:24:37.227Z,98818.56
2022-12-04T14:27:42.521Z,98815.72
2022-12-04T14:30:39.282Z,98815.78
2022-12-04T14:33:26.738Z,98800.41
2022-12-04T14:36:19.161Z,98801.72
2022-12-04T14:39:20.967Z,98801.78
2022-12-04T14:42:13.482Z,98793.63
2022-12-04T14:45:00.975Z,98798.06
2022-12-04T14:48:15.651Z,98795.34
2022-12-04T14:51:09.652Z,98792.31
2022-12-04T14:54:07.605Z,98787.03
2022-12-04T14:57:04.883Z,98787.31
2022-12-04T14:59:53.626Z,98790.97
2022-12-04T15:02:40.503Z,98781.13
2022-12-04T15:05:29.371Z,98786.78
2022-12-04T15:08:15.329Z,98780.44
2022-12-04T15:11:19.214Z,98774.91
2022-12-04T15:14:13.028Z,98775.75
2022-12-04T15:17:04.807Z,98770.63
2022-12-04T15:19:50.100Z,98772.63
2022-12-04T15:22:35.556Z,98775.03
2022-12-04T15:25:25.287Z,98777.81
2022-12-04T15:28:18.427Z,98764.81
2022-12-04T15:31:10.263Z,98765.56
2022-12-04T15:34:00.653Z,98764.81
2022-12-04T15:37:03.226Z,98760.03
2022-12-04T15:39:50.823Z,98771.13
2022-12-04T15:42:37.534Z,98762.09
2022-12-04T15:45:34.799Z,98764.03
2022-12-04T15:48:29.372Z,98757.94
2022-12-04T15:51:18.975Z,98761.44
2022-12-04T15:54:04.632Z,98754.22
2022-12-04T15:57:01.129Z,98754.16
2022-12-04T15:59:51.894Z,98755.72
2022-12-04T16:02:42.870Z,98752.50
2022-12-04T16:05:36.455Z,98748.59
2022-12-04T16:08:25.412Z,98746.19
2022-12-04T16:17:02.645Z,98752.16
2022-12-04T16:19:50.784Z,98758.47
2022-12-04T16:22:35.752Z,98755.63
2022-12-04T16:25:20.482Z,98757.97
2022-12-04T16:28:05.704Z,98749.97
2022-12-04T16:30:54.225Z,98746.78
2022-12-04T16:33:39.306Z,98749.91
2022-12-04T17:45:28.958Z,98736.00
2022-12-04T17:48:16.705Z,98738.78
2022-12-04T17:51:23.076Z,98742.34
2022-12-04T17:54:08.282Z,98728.00
2022-12-04T17:56:57.787Z,98732.38
2022-12-04T17:59:44.660Z,98735.91
2022-12-04T18:02:30.312Z,98739.91
2022-12-04T18:05:17.228Z,98731.13
2022-12-04T18:08:02.617Z,98740.59
2022-12-04T18:10:48.537Z,98740.25
2022-12-04T18:13:34.605Z,98732.72
2022-12-04T18:16:20.579Z,98735.91
2022-12-04T18:19:07.816Z,98738.69
2022-12-04T18:21:54.415Z,98732.78
2022-12-04T18:24:40.106Z,98738.34
2022-12-04T18:27:26.261Z,98739.56
2022-12-04T18:30:12.357Z,98736.78
2022-12-04T18:32:58.430Z,98743.13
2022-12-04T18:35:44.048Z,98728.00
2022-12-04T18:38:31.057Z,98732.38
2022-12-04T18:41:16.460Z,98735.50
2022-12-04T18:44:03.157Z,98722.38
2022-12-04T18:46:48.441Z,98736.97
2022-12-04T18:49:33.754Z,98723.06
2022-12-04T19:00:41.322Z,98734.34
2022-12-04T19:03:26.098Z,98725.47
2022-12-04T19:06:12.245Z,98735.72
2022-12-04T19:09:00.093Z,98728.97
2022-12-04T19:11:45.623Z,98731.41
2022-12-04T19:14:31.505Z,98732.59
2022-12-04T19:17:16.948Z,98718.44
2022-12-04T19:20:02.433Z,98725.66
2022-12-04T19:22:47.948Z,98734.53
2022-12-04T19:25:33.536Z,98727.06
2022-12-04T19:28:18.927Z,98735.03
2022-12-04T19:31:05.000Z,98740.25
2022-12-04T19:33:51.124Z,98735.16
2022-12-04T19:36:36.695Z,98732.88
2022-12-04T19:39:22.505Z,98734.09
2022-12-04T19:42:09.608Z,98731.41
2022-12-04T19:44:56.585Z,98729.75
2022-12-04T19:47:43.451Z,98730.56
2022-12-04T19:50:29.305Z,98728.97
2022-12-04T19:53:14.620Z,98728.63
2022-12-04T19:56:05.546Z,98719.16
2022-12-04T19:58:52.495Z,98725.94
2022-12-04T20:01:38.601Z,98720.47
2022-12-04T20:04:24.001Z,98721.00
2022-12-04T20:07:09.388Z,98728.22
2022-12-04T20:09:54.730Z,98724.38
2022-12-04T20:12:40.824Z,98725.16
2022-12-04T20:15:26.430Z,98732.53
2022-12-04T20:18:11.932Z,98734.88
2022-12-04T20:20:59.055Z,98729.22
2022-12-04T20:23:50.646Z,98720.47
2022-12-04T20:26:39.086Z,98729.16
2022-12-04T20:29:24.889Z,98726.66
2022-12-04T20:32:10.566Z,98722.66
2022-12-04T20:34:55.840Z,98726.53
2022-12-04T20:37:41.421Z,98726.88
2022-12-04T20:40:26.851Z,98734.34
2022-12-04T20:43:12.776Z,98725.59
2022-12-04T20:45:58.191Z,98728.72
2022-12-04T20:48:48.285Z,98727.06
2022-12-04T20:51:39.015Z,98730.19
2022-12-04T20:54:25.501Z,98722.19
2022-12-04T20:57:10.977Z,98715.84
2022-12-04T20:59:57.099Z,98716.22
2022-12-04T21:02:43.658Z,98711.75
2022-12-04T21:05:29.183Z,98706.22
2022-12-04T21:08:14.607Z,98699.97
2022-12-04T21:10:59.774Z,98703.84
2022-12-04T21:14:03.517Z,98703.44
2022-12-04T21:16:49.848Z,98693.53
2022-12-04T21:19:35.249Z,98701.06
2022-12-04T21:22:21.163Z,98698.31
2022-12-04T21:25:08.950Z,98691.97
2022-12-04T21:27:54.908Z,98691.97
2022-12-04T21:30:40.205Z,98696.75
2022-12-04T21:33:25.893Z,98693.53
2022-12-04T21:36:11.529Z,98704.63
2022-12-04T21:38:57.253Z,98691.97
2022-12-04T21:42:01.027Z,98691.19
2022-12-04T21:44:46.864Z,98687.97
2022-12-04T21:47:32.910Z,98685.53
2022-12-04T21:50:18.496Z,98674.75
2022-12-04T21:53:03.916Z,98682.22
2022-12-04T21:55:55.949Z,98669.88
2022-12-04T21:58:41.880Z,98670.59
2022-12-04T22:01:28.456Z,98671.81
2022-12-04T22:04:13.927Z,98681.28
2022-12-04T22:06:59.380Z,98684.38
2022-12-04T22:09:44.931Z,98686.75
2022-12-04T22:15:39.072Z,98674.59
2022-12-04T22:18:24.835Z,98675.09
2022-12-04T22:21:14.573Z,98674.41
2022-12-04T22:24:01.868Z,98674.59
2022-12-04T22:26:47.225Z,98683.81
2022-12-04T22:32:37.944Z,98686.44
2022-12-04T22:35:24.306Z,98695.63
2022-12-04T22:38:09.934Z,98696.88
2022-12-04T22:40:55.110Z,98694.28
2022-12-04T22:43:41.149Z,98699.50
2022-12-04T22:46:26.413Z,98693.59
2022-12-04T22:49:11.723Z,98694.00
2022-12-04T22:51:57.157Z,98698.09
2022-12-04T22:54:42.480Z,98688.22
2022-12-04T22:57:28.381Z,98683.50
2022-12-04T23:00:14.265Z,98688.38
2022-12-04T23:02:59.787Z,98685.25
2022-12-04T23:05:45.037Z,98687.69
2022-12-04T23:08:30.573Z,98685.34
2022-12-04T23:11:19.320Z,98682.22
2022-12-04T23:14:06.989Z,98674.31
2022-12-04T23:16:52.488Z,98668.00
2022-12-04T23:19:38.441Z,98670.41
2022-12-04T23:22:23.877Z,98676.03
2022-12-04T23:25:09.375Z,98674.50
2022-12-04T23:27:54.961Z,98683.69
2022-12-04T23:30:45.636Z,98684.47
2022-12-04T23:33:32.292Z,98687.66
2022-12-04T23:36:17.879Z,98687.66
2022-12-04T23:39:03.596Z,98684.53
2022-12-04T23:41:49.185Z,98690.09
2022-12-04T23:44:34.731Z,98683.41
2022-12-04T23:47:20.083Z,98685.84
2022-12-04T23:50:05.922Z,98691.00
2022-12-04T23:52:51.323Z,98690.25
2022-12-04T23:55:36.521Z,98689.47
2022-12-04T23:58:21.694Z,98690.66
